sensor_id;sensor_type;location;lat;lon;timestamp;P1;durP1;ratioP1;P2;durP2;ratioP2
13252;SDS011;6693;54.370;10.132;2023-05-18T00:00:23;7.32;;;1.80;;
13252;SDS011;6693;54.370;10.132;2023-05-18T00:01:27;9.43;;;1.63;;
13252;SDS011;6693;54.370;10.132;2023-05-18T00:02:29;8.48;;;1.73;;
13252;SDS011;6693;54.370;10.132;2023-05-18T00:03:33;6.03;;;1.63;;
13252;SDS011;6693;54.370;10.132;2023-05-18T00:04:35;6.88;;;1.60;;
13252;SDS011;6693;54.370;10.132;2023-05-18T00:05:38;7.43;;;1.92;;
13252;SDS011;6693;54.370;10.132;2023-05-18T00:06:39;8.07;;;1.63;;
13252;SDS011;6693;54.370;10.132;2023-05-18T00:07:42;6.82;;;1.40;;
13252;SDS011;6693;54.370;10.132;2023-05-18T00:08:42;7.60;;;1.73;;
13252;SDS011;6693;54.370;10.132;2023-05-18T00:09:46;8.00;;;1.40;;
13252;SDS011;6693;54.370;10.132;2023-05-18T00:10:49;7.00;;;1.65;;
13252;SDS011;6693;54.370;10.132;2023-05-18T00:11:52;8.38;;;1.75;;
13252;SDS011;6693;54.370;10.132;2023-05-18T00:12:53;7.78;;;1.63;;
13252;SDS011;6693;54.370;10.132;2023-05-18T00:13:56;8.20;;;1.95;;
13252;SDS011;6693;54.370;10.132;2023-05-18T00:14:57;5.07;;;1.70;;
13252;SDS011;6693;54.370;10.132;2023-05-18T00:16:00;8.88;;;1.67;;
13252;SDS011;6693;54.370;10.132;2023-05-18T00:17:01;8.15;;;1.85;;
13252;SDS011;6693;54.370;10.132;2023-05-18T00:18:04;7.90;;;1.70;;
13252;SDS011;6693;54.370;10.132;2023-05-18T00:19:05;8.23;;;1.75;;
13252;SDS011;6693;54.370;10.132;2023-05-18T00:20:09;8.13;;;1.70;;
13252;SDS011;6693;54.370;10.132;2023-05-18T00:21:10;8.00;;;1.60;;
13252;SDS011;6693;54.370;10.132;2023-05-18T00:22:15;7.43;;;1.70;;
13252;SDS011;6693;54.370;10.132;2023-05-18T00:23:17;7.95;;;1.73;;
13252;SDS011;6693;54.370;10.132;2023-05-18T00:24:24;7.15;;;1.50;;
13252;SDS011;6693;54.370;10.132;2023-05-18T00:25:24;6.80;;;1.80;;
13252;SDS011;6693;54.370;10.132;2023-05-18T00:26:30;5.50;;;1.50;;
13252;SDS011;6693;54.370;10.132;2023-05-18T00:27:31;8.85;;;1.80;;
13252;SDS011;6693;54.370;10.132;2023-05-18T00:28:34;6.45;;;1.35;;
13252;SDS011;6693;54.370;10.132;2023-05-18T00:29:35;7.60;;;1.63;;
13252;SDS011;6693;54.370;10.132;2023-05-18T00:30:38;10.32;;;1.85;;
13252;SDS011;6693;54.370;10.132;2023-05-18T00:31:38;8.18;;;1.80;;
13252;SDS011;6693;54.370;10.132;2023-05-18T00:32:44;6.63;;;1.80;;
13252;SDS011;6693;54.370;10.132;2023-05-18T00:33:44;8.13;;;1.63;;
13252;SDS011;6693;54.370;10.132;2023-05-18T00:34:48;10.25;;;2.80;;
13252;SDS011;6693;54.370;10.132;2023-05-18T00:35:48;8.90;;;1.95;;
13252;SDS011;6693;54.370;10.132;2023-05-18T00:36:51;9.15;;;1.85;;
13252;SDS011;6693;54.370;10.132;2023-05-18T00:37:52;9.00;;;1.50;;
13252;SDS011;6693;54.370;10.132;2023-05-18T00:38:55;7.30;;;1.42;;
13252;SDS011;6693;54.370;10.132;2023-05-18T00:39:56;7.40;;;1.70;;
13252;SDS011;6693;54.370;10.132;2023-05-18T00:40:59;8.55;;;1.88;;
13252;SDS011;6693;54.370;10.132;2023-05-18T00:42:03;10.13;;;1.90;;
13252;SDS011;6693;54.370;10.132;2023-05-18T00:43:07;11.32;;;1.85;;
13252;SDS011;6693;54.370;10.132;2023-05-18T00:44:07;9.23;;;2.03;;
13252;SDS011;6693;54.370;10.132;2023-05-18T00:45:10;8.02;;;1.70;;
13252;SDS011;6693;54.370;10.132;2023-05-18T00:46:11;9.20;;;1.60;;
13252;SDS011;6693;54.370;10.132;2023-05-18T00:47:14;7.57;;;1.92;;
13252;SDS011;6693;54.370;10.132;2023-05-18T00:48:17;8.45;;;2.17;;
13252;SDS011;6693;54.370;10.132;2023-05-18T00:49:20;9.13;;;2.10;;
13252;SDS011;6693;54.370;10.132;2023-05-18T00:50:21;6.20;;;1.92;;
13252;SDS011;6693;54.370;10.132;2023-05-18T00:51:24;10.95;;;1.80;;
13252;SDS011;6693;54.370;10.132;2023-05-18T00:52:25;8.35;;;1.77;;
13252;SDS011;6693;54.370;10.132;2023-05-18T00:53:31;9.30;;;1.85;;
13252;SDS011;6693;54.370;10.132;2023-05-18T00:54:33;10.15;;;2.20;;
13252;SDS011;6693;54.370;10.132;2023-05-18T00:55:37;9.23;;;1.95;;
13252;SDS011;6693;54.370;10.132;2023-05-18T00:56:40;6.32;;;1.85;;
13252;SDS011;6693;54.370;10.132;2023-05-18T00:57:48;7.47;;;2.15;;
13252;SDS011;6693;54.370;10.132;2023-05-18T00:58:49;10.07;;;2.08;;
13252;SDS011;6693;54.370;10.132;2023-05-18T00:59:54;6.80;;;1.48;;
13252;SDS011;6693;54.370;10.132;2023-05-18T01:00:58;7.20;;;1.75;;
13252;SDS011;6693;54.370;10.132;2023-05-18T01:02:02;8.25;;;1.98;;
13252;SDS011;6693;54.370;10.132;2023-05-18T01:03:03;6.60;;;1.77;;
13252;SDS011;6693;54.370;10.132;2023-05-18T01:04:09;7.25;;;1.63;;
13252;SDS011;6693;54.370;10.132;2023-05-18T01:05:13;5.65;;;1.60;;
13252;SDS011;6693;54.370;10.132;2023-05-18T01:06:17;8.13;;;1.85;;
13252;SDS011;6693;54.370;10.132;2023-05-18T01:07:17;9.63;;;1.75;;
13252;SDS011;6693;54.370;10.132;2023-05-18T01:08:26;9.48;;;1.73;;
13252;SDS011;6693;54.370;10.132;2023-05-18T01:09:27;7.53;;;1.73;;
13252;SDS011;6693;54.370;10.132;2023-05-18T01:10:31;7.95;;;1.50;;
13252;SDS011;6693;54.370;10.132;2023-05-18T01:11:36;5.85;;;1.50;;
13252;SDS011;6693;54.370;10.132;2023-05-18T01:12:43;9.55;;;1.85;;
13252;SDS011;6693;54.370;10.132;2023-05-18T01:13:53;7.30;;;1.40;;
13252;SDS011;6693;54.370;10.132;2023-05-18T01:15:05;11.05;;;1.58;;
13252;SDS011;6693;54.370;10.132;2023-05-18T01:16:08;9.82;;;1.80;;
13252;SDS011;6693;54.370;10.132;2023-05-18T01:17:16;7.63;;;1.77;;
13252;SDS011;6693;54.370;10.132;2023-05-18T01:18:24;7.93;;;1.77;;
13252;SDS011;6693;54.370;10.132;2023-05-18T01:21:01;9.60;;;2.28;;
13252;SDS011;6693;54.370;10.132;2023-05-18T01:22:15;8.80;;;2.22;;
13252;SDS011;6693;54.370;10.132;2023-05-18T01:24:48;5.70;;;1.40;;
13252;SDS011;6693;54.370;10.132;2023-05-18T01:25:49;11.48;;;1.95;;
13252;SDS011;6693;54.370;10.132;2023-05-18T01:27:11;8.18;;;2.00;;
13252;SDS011;6693;54.370;10.132;2023-05-18T01:28:13;6.00;;;1.83;;
13252;SDS011;6693;54.370;10.132;2023-05-18T01:29:18;9.82;;;1.80;;
13252;SDS011;6693;54.370;10.132;2023-05-18T01:31:23;7.05;;;1.92;;
13252;SDS011;6693;54.370;10.132;2023-05-18T01:32:24;7.70;;;1.80;;
13252;SDS011;6693;54.370;10.132;2023-05-18T01:33:27;11.55;;;1.70;;
13252;SDS011;6693;54.370;10.132;2023-05-18T01:34:28;5.75;;;1.65;;
13252;SDS011;6693;54.370;10.132;2023-05-18T01:35:31;7.30;;;1.70;;
13252;SDS011;6693;54.370;10.132;2023-05-18T01:36:31;8.15;;;1.85;;
13252;SDS011;6693;54.370;10.132;2023-05-18T01:37:35;7.60;;;2.05;;
13252;SDS011;6693;54.370;10.132;2023-05-18T01:38:35;9.32;;;2.30;;
13252;SDS011;6693;54.370;10.132;2023-05-18T01:39:39;7.40;;;1.75;;
13252;SDS011;6693;54.370;10.132;2023-05-18T01:40:42;6.60;;;1.90;;
13252;SDS011;6693;54.370;10.132;2023-05-18T01:41:55;8.00;;;1.90;;
13252;SDS011;6693;54.370;10.132;2023-05-18T01:43:04;5.80;;;1.92;;
13252;SDS011;6693;54.370;10.132;2023-05-18T01:44:10;5.78;;;1.80;;
13252;SDS011;6693;54.370;10.132;2023-05-18T01:45:16;10.40;;;2.20;;
13252;SDS011;6693;54.370;10.132;2023-05-18T01:46:21;6.32;;;1.77;;
13252;SDS011;6693;54.370;10.132;2023-05-18T01:47:29;12.30;;;2.08;;
13252;SDS011;6693;54.370;10.132;2023-05-18T01:48:30;8.48;;;2.22;;
13252;SDS011;6693;54.370;10.132;2023-05-18T01:49:37;8.73;;;2.67;;
13252;SDS011;6693;54.370;10.132;2023-05-18T01:50:40;10.15;;;2.08;;
13252;SDS011;6693;54.370;10.132;2023-05-18T01:51:45;9.05;;;2.03;;
13252;SDS011;6693;54.370;10.132;2023-05-18T01:52:47;11.02;;;2.30;;
13252;SDS011;6693;54.370;10.132;2023-05-18T01:53:56;9.90;;;1.90;;
13252;SDS011;6693;54.370;10.132;2023-05-18T01:55:00;7.22;;;2.00;;
13252;SDS011;6693;54.370;10.132;2023-05-18T01:56:05;7.88;;;2.10;;
13252;SDS011;6693;54.370;10.132;2023-05-18T01:57:09;10.07;;;2.28;;
13252;SDS011;6693;54.370;10.132;2023-05-18T01:58:13;9.40;;;2.08;;
13252;SDS011;6693;54.370;10.132;2023-05-18T02:00:18;6.38;;;1.88;;
13252;SDS011;6693;54.370;10.132;2023-05-18T02:01:19;7.40;;;1.50;;
13252;SDS011;6693;54.370;10.132;2023-05-18T02:02:23;7.55;;;2.25;;
13252;SDS011;6693;54.370;10.132;2023-05-18T02:03:23;9.23;;;1.90;;
13252;SDS011;6693;54.370;10.132;2023-05-18T02:04:26;5.90;;;1.92;;
13252;SDS011;6693;54.370;10.132;2023-05-18T02:05:27;7.78;;;2.85;;
13252;SDS011;6693;54.370;10.132;2023-05-18T02:06:30;11.35;;;2.17;;
13252;SDS011;6693;54.370;10.132;2023-05-18T02:08:35;6.93;;;2.00;;
13252;SDS011;6693;54.370;10.132;2023-05-18T02:09:36;7.22;;;1.52;;
13252;SDS011;6693;54.370;10.132;2023-05-18T02:10:39;10.18;;;2.38;;
13252;SDS011;6693;54.370;10.132;2023-05-18T02:11:40;9.18;;;1.90;;
13252;SDS011;6693;54.370;10.132;2023-05-18T02:13:52;7.47;;;1.63;;
13252;SDS011;6693;54.370;10.132;2023-05-18T02:14:55;6.63;;;1.63;;
13252;SDS011;6693;54.370;10.132;2023-05-18T02:15:57;9.90;;;1.92;;
13252;SDS011;6693;54.370;10.132;2023-05-18T02:17:00;8.85;;;2.15;;
13252;SDS011;6693;54.370;10.132;2023-05-18T02:18:01;10.05;;;1.88;;
13252;SDS011;6693;54.370;10.132;2023-05-18T02:19:04;8.88;;;2.03;;
13252;SDS011;6693;54.370;10.132;2023-05-18T02:20:06;9.38;;;1.80;;
13252;SDS011;6693;54.370;10.132;2023-05-18T02:21:10;7.85;;;2.17;;
13252;SDS011;6693;54.370;10.132;2023-05-18T02:22:12;7.70;;;2.00;;
13252;SDS011;6693;54.370;10.132;2023-05-18T02:23:15;5.95;;;1.92;;
13252;SDS011;6693;54.370;10.132;2023-05-18T02:24:16;10.07;;;2.05;;
13252;SDS011;6693;54.370;10.132;2023-05-18T02:25:22;9.75;;;2.53;;
13252;SDS011;6693;54.370;10.132;2023-05-18T02:26:23;7.60;;;1.60;;
13252;SDS011;6693;54.370;10.132;2023-05-18T02:27:26;8.48;;;1.83;;
13252;SDS011;6693;54.370;10.132;2023-05-18T02:28:27;7.93;;;1.70;;
13252;SDS011;6693;54.370;10.132;2023-05-18T02:29:33;8.98;;;2.33;;
13252;SDS011;6693;54.370;10.132;2023-05-18T02:30:33;10.60;;;1.92;;
13252;SDS011;6693;54.370;10.132;2023-05-18T02:31:37;7.15;;;1.85;;
13252;SDS011;6693;54.370;10.132;2023-05-18T02:32:37;10.10;;;2.28;;
13252;SDS011;6693;54.370;10.132;2023-05-18T02:33:41;7.93;;;2.10;;
13252;SDS011;6693;54.370;10.132;2023-05-18T02:34:42;7.55;;;1.98;;
13252;SDS011;6693;54.370;10.132;2023-05-18T02:35:45;9.55;;;2.10;;
13252;SDS011;6693;54.370;10.132;2023-05-18T02:36:46;8.50;;;1.80;;
13252;SDS011;6693;54.370;10.132;2023-05-18T02:37:49;7.43;;;2.05;;
13252;SDS011;6693;54.370;10.132;2023-05-18T02:38:50;6.78;;;1.95;;
13252;SDS011;6693;54.370;10.132;2023-05-18T02:39:53;7.60;;;1.58;;
13252;SDS011;6693;54.370;10.132;2023-05-18T02:40:53;9.88;;;1.90;;
13252;SDS011;6693;54.370;10.132;2023-05-18T02:41:56;8.10;;;2.03;;
13252;SDS011;6693;54.370;10.132;2023-05-18T02:42:57;7.68;;;1.77;;
13252;SDS011;6693;54.370;10.132;2023-05-18T02:44:00;8.80;;;2.08;;
13252;SDS011;6693;54.370;10.132;2023-05-18T02:45:05;6.50;;;1.75;;
13252;SDS011;6693;54.370;10.132;2023-05-18T02:46:09;6.35;;;1.60;;
13252;SDS011;6693;54.370;10.132;2023-05-18T02:47:10;6.68;;;1.80;;
13252;SDS011;6693;54.370;10.132;2023-05-18T02:48:13;10.48;;;1.83;;
13252;SDS011;6693;54.370;10.132;2023-05-18T02:49:13;8.23;;;1.85;;
13252;SDS011;6693;54.370;10.132;2023-05-18T02:50:17;9.50;;;1.83;;
13252;SDS011;6693;54.370;10.132;2023-05-18T02:51:17;10.15;;;1.80;;
13252;SDS011;6693;54.370;10.132;2023-05-18T02:52:20;8.88;;;1.92;;
13252;SDS011;6693;54.370;10.132;2023-05-18T02:53:21;8.00;;;2.10;;
13252;SDS011;6693;54.370;10.132;2023-05-18T02:54:25;8.90;;;1.85;;
13252;SDS011;6693;54.370;10.132;2023-05-18T02:55:26;5.25;;;1.60;;
13252;SDS011;6693;54.370;10.132;2023-05-18T02:56:29;6.63;;;2.00;;
13252;SDS011;6693;54.370;10.132;2023-05-18T02:57:31;9.50;;;2.15;;
13252;SDS011;6693;54.370;10.132;2023-05-18T02:58:34;8.07;;;1.92;;
13252;SDS011;6693;54.370;10.132;2023-05-18T02:59:35;8.38;;;1.85;;
13252;SDS011;6693;54.370;10.132;2023-05-18T03:00:41;6.35;;;1.95;;
13252;SDS011;6693;54.370;10.132;2023-05-18T03:01:42;9.75;;;2.15;;
13252;SDS011;6693;54.370;10.132;2023-05-18T03:02:46;9.15;;;2.28;;
13252;SDS011;6693;54.370;10.132;2023-05-18T03:03:47;10.07;;;2.10;;
13252;SDS011;6693;54.370;10.132;2023-05-18T03:04:52;6.80;;;1.70;;
13252;SDS011;6693;54.370;10.132;2023-05-18T03:05:56;6.28;;;1.70;;
13252;SDS011;6693;54.370;10.132;2023-05-18T03:06:59;6.88;;;1.77;;
13252;SDS011;6693;54.370;10.132;2023-05-18T03:08:01;10.73;;;2.08;;
13252;SDS011;6693;54.370;10.132;2023-05-18T03:09:05;7.38;;;1.70;;
13252;SDS011;6693;54.370;10.132;2023-05-18T03:10:05;7.35;;;1.58;;
13252;SDS011;6693;54.370;10.132;2023-05-18T03:11:09;8.00;;;1.85;;
13252;SDS011;6693;54.370;10.132;2023-05-18T03:12:10;6.68;;;1.30;;
13252;SDS011;6693;54.370;10.132;2023-05-18T03:13:13;8.18;;;1.77;;
13252;SDS011;6693;54.370;10.132;2023-05-18T03:14:14;10.48;;;2.00;;
13252;SDS011;6693;54.370;10.132;2023-05-18T03:15:17;9.40;;;1.52;;
13252;SDS011;6693;54.370;10.132;2023-05-18T03:16:21;7.40;;;1.95;;
13252;SDS011;6693;54.370;10.132;2023-05-18T03:17:28;7.25;;;1.70;;
13252;SDS011;6693;54.370;10.132;2023-05-18T03:18:29;7.68;;;1.90;;
13252;SDS011;6693;54.370;10.132;2023-05-18T03:19:32;10.95;;;1.67;;
13252;SDS011;6693;54.370;10.132;2023-05-18T03:20:34;8.45;;;1.90;;
13252;SDS011;6693;54.370;10.132;2023-05-18T03:21:37;8.73;;;2.15;;
13252;SDS011;6693;54.370;10.132;2023-05-18T03:22:38;8.13;;;2.08;;
13252;SDS011;6693;54.370;10.132;2023-05-18T03:23:41;8.13;;;2.22;;
13252;SDS011;6693;54.370;10.132;2023-05-18T03:24:42;9.45;;;1.92;;
13252;SDS011;6693;54.370;10.132;2023-05-18T03:25:48;6.63;;;1.98;;
13252;SDS011;6693;54.370;10.132;2023-05-18T03:26:54;8.63;;;1.75;;
13252;SDS011;6693;54.370;10.132;2023-05-18T03:27:59;7.28;;;1.60;;
13252;SDS011;6693;54.370;10.132;2023-05-18T03:29:00;9.00;;;2.28;;
13252;SDS011;6693;54.370;10.132;2023-05-18T03:30:04;6.55;;;2.00;;
13252;SDS011;6693;54.370;10.132;2023-05-18T03:31:05;6.35;;;1.85;;
13252;SDS011;6693;54.370;10.132;2023-05-18T03:32:11;12.38;;;2.03;;
13252;SDS011;6693;54.370;10.132;2023-05-18T03:33:12;8.38;;;2.00;;
13252;SDS011;6693;54.370;10.132;2023-05-18T03:34:17;10.88;;;2.00;;
13252;SDS011;6693;54.370;10.132;2023-05-18T03:35:18;10.82;;;1.90;;
13252;SDS011;6693;54.370;10.132;2023-05-18T03:36:21;8.63;;;1.98;;
13252;SDS011;6693;54.370;10.132;2023-05-18T03:37:25;7.53;;;1.90;;
13252;SDS011;6693;54.370;10.132;2023-05-18T03:38:26;9.13;;;2.10;;
13252;SDS011;6693;54.370;10.132;2023-05-18T03:39:29;8.50;;;2.00;;
13252;SDS011;6693;54.370;10.132;2023-05-18T03:40:30;8.65;;;2.03;;
13252;SDS011;6693;54.370;10.132;2023-05-18T03:41:33;6.82;;;2.33;;
13252;SDS011;6693;54.370;10.132;2023-05-18T03:42:33;13.07;;;2.05;;
13252;SDS011;6693;54.370;10.132;2023-05-18T03:43:37;9.45;;;2.47;;
13252;SDS011;6693;54.370;10.132;2023-05-18T03:44:37;8.13;;;1.83;;
13252;SDS011;6693;54.370;10.132;2023-05-18T03:45:40;7.38;;;1.90;;
13252;SDS011;6693;54.370;10.132;2023-05-18T03:46:41;7.78;;;1.88;;
13252;SDS011;6693;54.370;10.132;2023-05-18T03:47:47;9.85;;;1.98;;
13252;SDS011;6693;54.370;10.132;2023-05-18T03:48:48;7.55;;;1.92;;
13252;SDS011;6693;54.370;10.132;2023-05-18T03:49:52;8.43;;;2.25;;
13252;SDS011;6693;54.370;10.132;2023-05-18T03:50:53;11.32;;;2.08;;
13252;SDS011;6693;54.370;10.132;2023-05-18T03:51:56;8.65;;;2.15;;
13252;SDS011;6693;54.370;10.132;2023-05-18T03:52:57;8.63;;;1.77;;
13252;SDS011;6693;54.370;10.132;2023-05-18T03:54:01;8.07;;;1.90;;
13252;SDS011;6693;54.370;10.132;2023-05-18T03:55:02;6.75;;;1.90;;
13252;SDS011;6693;54.370;10.132;2023-05-18T03:56:06;8.55;;;2.20;;
13252;SDS011;6693;54.370;10.132;2023-05-18T03:57:07;8.02;;;2.20;;
13252;SDS011;6693;54.370;10.132;2023-05-18T03:58:10;8.68;;;1.92;;
13252;SDS011;6693;54.370;10.132;2023-05-18T03:59:10;6.85;;;1.63;;
13252;SDS011;6693;54.370;10.132;2023-05-18T04:00:14;7.25;;;1.90;;
13252;SDS011;6693;54.370;10.132;2023-05-18T04:01:15;9.20;;;2.35;;
13252;SDS011;6693;54.370;10.132;2023-05-18T04:02:18;10.35;;;2.25;;
13252;SDS011;6693;54.370;10.132;2023-05-18T04:03:22;6.30;;;1.90;;
13252;SDS011;6693;54.370;10.132;2023-05-18T04:04:26;6.47;;;1.80;;
13252;SDS011;6693;54.370;10.132;2023-05-18T04:05:26;7.03;;;1.90;;
13252;SDS011;6693;54.370;10.132;2023-05-18T04:06:30;10.82;;;3.33;;
13252;SDS011;6693;54.370;10.132;2023-05-18T04:07:30;7.65;;;2.85;;
13252;SDS011;6693;54.370;10.132;2023-05-18T04:08:42;7.50;;;2.38;;
13252;SDS011;6693;54.370;10.132;2023-05-18T04:09:45;8.93;;;2.53;;
13252;SDS011;6693;54.370;10.132;2023-05-18T04:10:48;9.52;;;2.40;;
13252;SDS011;6693;54.370;10.132;2023-05-18T04:11:48;9.48;;;2.60;;
13252;SDS011;6693;54.370;10.132;2023-05-18T04:12:52;7.93;;;2.40;;
13252;SDS011;6693;54.370;10.132;2023-05-18T04:13:52;12.00;;;2.58;;
13252;SDS011;6693;54.370;10.132;2023-05-18T04:14:57;8.55;;;2.35;;
13252;SDS011;6693;54.370;10.132;2023-05-18T04:15:57;9.30;;;2.83;;
13252;SDS011;6693;54.370;10.132;2023-05-18T04:17:02;10.63;;;2.67;;
13252;SDS011;6693;54.370;10.132;2023-05-18T04:18:04;8.07;;;2.63;;
13252;SDS011;6693;54.370;10.132;2023-05-18T04:19:10;10.20;;;2.83;;
13252;SDS011;6693;54.370;10.132;2023-05-18T04:20:11;12.77;;;2.97;;
13252;SDS011;6693;54.370;10.132;2023-05-18T04:21:14;7.97;;;2.53;;
13252;SDS011;6693;54.370;10.132;2023-05-18T04:22:15;10.23;;;2.40;;
13252;SDS011;6693;54.370;10.132;2023-05-18T04:23:19;9.13;;;2.83;;
13252;SDS011;6693;54.370;10.132;2023-05-18T04:24:19;9.60;;;2.75;;
13252;SDS011;6693;54.370;10.132;2023-05-18T04:25:24;7.53;;;2.30;;
13252;SDS011;6693;54.370;10.132;2023-05-18T04:26:26;7.05;;;2.45;;
13252;SDS011;6693;54.370;10.132;2023-05-18T04:27:30;6.80;;;2.10;;
13252;SDS011;6693;54.370;10.132;2023-05-18T04:28:31;7.18;;;2.00;;
13252;SDS011;6693;54.370;10.132;2023-05-18T04:29:36;5.72;;;1.90;;
13252;SDS011;6693;54.370;10.132;2023-05-18T04:30:38;7.85;;;2.30;;
13252;SDS011;6693;54.370;10.132;2023-05-18T04:31:41;12.70;;;2.33;;
13252;SDS011;6693;54.370;10.132;2023-05-18T04:32:43;7.15;;;1.98;;
13252;SDS011;6693;54.370;10.132;2023-05-18T04:33:47;10.73;;;1.98;;
13252;SDS011;6693;54.370;10.132;2023-05-18T04:34:50;11.73;;;2.03;;
13252;SDS011;6693;54.370;10.132;2023-05-18T04:35:53;9.27;;;2.00;;
13252;SDS011;6693;54.370;10.132;2023-05-18T04:36:54;8.07;;;2.05;;
13252;SDS011;6693;54.370;10.132;2023-05-18T04:37:57;7.97;;;1.70;;
13252;SDS011;6693;54.370;10.132;2023-05-18T04:38:58;7.50;;;1.70;;
13252;SDS011;6693;54.370;10.132;2023-05-18T04:40:03;6.20;;;1.70;;
13252;SDS011;6693;54.370;10.132;2023-05-18T04:41:06;9.35;;;1.70;;
13252;SDS011;6693;54.370;10.132;2023-05-18T04:42:09;8.57;;;1.85;;
13252;SDS011;6693;54.370;10.132;2023-05-18T04:43:13;7.68;;;2.10;;
13252;SDS011;6693;54.370;10.132;2023-05-18T04:44:16;7.93;;;1.73;;
13252;SDS011;6693;54.370;10.132;2023-05-18T04:45:17;6.85;;;1.50;;
13252;SDS011;6693;54.370;10.132;2023-05-18T04:46:21;7.38;;;1.92;;
13252;SDS011;6693;54.370;10.132;2023-05-18T04:47:22;6.45;;;1.65;;
13252;SDS011;6693;54.370;10.132;2023-05-18T04:48:26;6.95;;;1.85;;
13252;SDS011;6693;54.370;10.132;2023-05-18T04:49:28;5.80;;;1.13;;
13252;SDS011;6693;54.370;10.132;2023-05-18T04:50:34;7.75;;;1.30;;
13252;SDS011;6693;54.370;10.132;2023-05-18T04:51:36;6.20;;;1.40;;
13252;SDS011;6693;54.370;10.132;2023-05-18T04:52:41;8.05;;;1.80;;
13252;SDS011;6693;54.370;10.132;2023-05-18T04:53:47;7.93;;;1.67;;
13252;SDS011;6693;54.370;10.132;2023-05-18T04:54:52;8.05;;;1.45;;
13252;SDS011;6693;54.370;10.132;2023-05-18T04:55:53;9.93;;;1.90;;
13252;SDS011;6693;54.370;10.132;2023-05-18T04:56:56;8.55;;;1.58;;
13252;SDS011;6693;54.370;10.132;2023-05-18T04:57:57;11.27;;;1.75;;
13252;SDS011;6693;54.370;10.132;2023-05-18T04:59:02;6.45;;;1.55;;
13252;SDS011;6693;54.370;10.132;2023-05-18T05:00:03;8.10;;;1.52;;
13252;SDS011;6693;54.370;10.132;2023-05-18T05:01:08;6.20;;;1.92;;
13252;SDS011;6693;54.370;10.132;2023-05-18T05:02:09;8.20;;;1.58;;
13252;SDS011;6693;54.370;10.132;2023-05-18T05:03:12;7.40;;;1.70;;
13252;SDS011;6693;54.370;10.132;2023-05-18T05:04:13;7.20;;;1.40;;
13252;SDS011;6693;54.370;10.132;2023-05-18T05:05:16;8.68;;;1.80;;
13252;SDS011;6693;54.370;10.132;2023-05-18T05:06:20;6.97;;;1.90;;
13252;SDS011;6693;54.370;10.132;2023-05-18T05:07:23;8.98;;;1.73;;
13252;SDS011;6693;54.370;10.132;2023-05-18T05:08:24;9.05;;;2.03;;
13252;SDS011;6693;54.370;10.132;2023-05-18T05:09:27;6.20;;;1.50;;
13252;SDS011;6693;54.370;10.132;2023-05-18T05:10:28;8.32;;;2.08;;
13252;SDS011;6693;54.370;10.132;2023-05-18T05:11:31;6.70;;;1.90;;
13252;SDS011;6693;54.370;10.132;2023-05-18T05:12:32;10.18;;;2.15;;
13252;SDS011;6693;54.370;10.132;2023-05-18T05:13:37;6.97;;;1.88;;
13252;SDS011;6693;54.370;10.132;2023-05-18T05:14:38;8.05;;;1.80;;
13252;SDS011;6693;54.370;10.132;2023-05-18T05:15:41;8.77;;;1.65;;
13252;SDS011;6693;54.370;10.132;2023-05-18T05:16:41;5.13;;;1.67;;
13252;SDS011;6693;54.370;10.132;2023-05-18T05:17:45;8.73;;;1.88;;
13252;SDS011;6693;54.370;10.132;2023-05-18T05:19:49;9.77;;;1.65;;
13252;SDS011;6693;54.370;10.132;2023-05-18T05:20:50;7.40;;;1.70;;
13252;SDS011;6693;54.370;10.132;2023-05-18T05:21:57;7.32;;;1.50;;
13252;SDS011;6693;54.370;10.132;2023-05-18T05:22:58;8.20;;;1.98;;
13252;SDS011;6693;54.370;10.132;2023-05-18T05:24:01;9.57;;;2.30;;
13252;SDS011;6693;54.370;10.132;2023-05-18T05:25:04;9.18;;;2.28;;
13252;SDS011;6693;54.370;10.132;2023-05-18T05:26:08;8.52;;;2.03;;
13252;SDS011;6693;54.370;10.132;2023-05-18T05:27:08;8.07;;;1.92;;
13252;SDS011;6693;54.370;10.132;2023-05-18T05:28:12;10.18;;;1.98;;
13252;SDS011;6693;54.370;10.132;2023-05-18T05:29:12;7.47;;;1.30;;
13252;SDS011;6693;54.370;10.132;2023-05-18T05:30:15;6.97;;;1.50;;
13252;SDS011;6693;54.370;10.132;2023-05-18T05:31:16;6.65;;;1.52;;
13252;SDS011;6693;54.370;10.132;2023-05-18T05:32:19;7.78;;;1.38;;
13252;SDS011;6693;54.370;10.132;2023-05-18T05:33:20;8.63;;;1.48;;
13252;SDS011;6693;54.370;10.132;2023-05-18T05:34:23;8.43;;;1.58;;
13252;SDS011;6693;54.370;10.132;2023-05-18T05:35:24;8.05;;;1.50;;
13252;SDS011;6693;54.370;10.132;2023-05-18T05:36:27;6.28;;;1.65;;
13252;SDS011;6693;54.370;10.132;2023-05-18T05:37:30;9.27;;;1.60;;
13252;SDS011;6693;54.370;10.132;2023-05-18T05:38:37;8.25;;;1.42;;
13252;SDS011;6693;54.370;10.132;2023-05-18T05:39:37;8.40;;;1.40;;
13252;SDS011;6693;54.370;10.132;2023-05-18T05:40:40;7.85;;;1.40;;
13252;SDS011;6693;54.370;10.132;2023-05-18T05:41:44;7.90;;;1.58;;
13252;SDS011;6693;54.370;10.132;2023-05-18T05:42:44;6.95;;;1.40;;
13252;SDS011;6693;54.370;10.132;2023-05-18T05:43:47;5.65;;;1.58;;
13252;SDS011;6693;54.370;10.132;2023-05-18T05:44:48;6.18;;;1.55;;
13252;SDS011;6693;54.370;10.132;2023-05-18T05:45:51;7.22;;;1.33;;
13252;SDS011;6693;54.370;10.132;2023-05-18T05:46:53;6.25;;;1.40;;
13252;SDS011;6693;54.370;10.132;2023-05-18T05:47:56;7.13;;;1.50;;
13252;SDS011;6693;54.370;10.132;2023-05-18T05:48:57;6.80;;;1.70;;
13252;SDS011;6693;54.370;10.132;2023-05-18T05:50:01;5.78;;;1.38;;
13252;SDS011;6693;54.370;10.132;2023-05-18T05:51:01;8.35;;;1.60;;
13252;SDS011;6693;54.370;10.132;2023-05-18T05:52:05;5.47;;;1.25;;
13252;SDS011;6693;54.370;10.132;2023-05-18T05:53:08;7.45;;;1.40;;
13252;SDS011;6693;54.370;10.132;2023-05-18T05:54:12;5.10;;;1.30;;
13252;SDS011;6693;54.370;10.132;2023-05-18T05:55:12;7.45;;;2.20;;
13252;SDS011;6693;54.370;10.132;2023-05-18T05:56:15;6.10;;;1.25;;
13252;SDS011;6693;54.370;10.132;2023-05-18T05:57:16;8.32;;;1.42;;
13252;SDS011;6693;54.370;10.132;2023-05-18T05:58:19;6.78;;;1.10;;
13252;SDS011;6693;54.370;10.132;2023-05-18T05:59:20;9.88;;;1.83;;
13252;SDS011;6693;54.370;10.132;2023-05-18T06:00:24;7.95;;;1.52;;
13252;SDS011;6693;54.370;10.132;2023-05-18T06:01:26;8.35;;;1.77;;
13252;SDS011;6693;54.370;10.132;2023-05-18T06:02:30;8.48;;;1.30;;
13252;SDS011;6693;54.370;10.132;2023-05-18T06:03:30;7.90;;;1.23;;
13252;SDS011;6693;54.370;10.132;2023-05-18T06:04:34;9.10;;;1.40;;
13252;SDS011;6693;54.370;10.132;2023-05-18T06:05:34;7.38;;;1.20;;
13252;SDS011;6693;54.370;10.132;2023-05-18T06:06:38;6.50;;;1.30;;
13252;SDS011;6693;54.370;10.132;2023-05-18T06:07:38;5.95;;;1.52;;
13252;SDS011;6693;54.370;10.132;2023-05-18T06:08:44;7.85;;;1.67;;
13252;SDS011;6693;54.370;10.132;2023-05-18T06:09:45;10.20;;;1.30;;
13252;SDS011;6693;54.370;10.132;2023-05-18T06:10:49;8.32;;;1.20;;
13252;SDS011;6693;54.370;10.132;2023-05-18T06:11:50;7.22;;;1.25;;
13252;SDS011;6693;54.370;10.132;2023-05-18T06:12:54;7.03;;;1.40;;
13252;SDS011;6693;54.370;10.132;2023-05-18T06:13:55;6.82;;;1.48;;
13252;SDS011;6693;54.370;10.132;2023-05-18T06:14:58;7.07;;;1.30;;
13252;SDS011;6693;54.370;10.132;2023-05-18T06:16:01;7.40;;;1.20;;
13252;SDS011;6693;54.370;10.132;2023-05-18T06:17:02;7.10;;;1.27;;
13252;SDS011;6693;54.370;10.132;2023-05-18T06:18:06;9.68;;;1.40;;
13252;SDS011;6693;54.370;10.132;2023-05-18T06:19:07;8.23;;;1.40;;
13252;SDS011;6693;54.370;10.132;2023-05-18T06:20:10;6.65;;;1.40;;
13252;SDS011;6693;54.370;10.132;2023-05-18T06:21:12;8.95;;;1.42;;
13252;SDS011;6693;54.370;10.132;2023-05-18T06:22:15;8.68;;;1.25;;
13252;SDS011;6693;54.370;10.132;2023-05-18T06:23:16;6.40;;;1.30;;
13252;SDS011;6693;54.370;10.132;2023-05-18T06:24:25;6.10;;;1.30;;
13252;SDS011;6693;54.370;10.132;2023-05-18T06:25:26;8.38;;;1.40;;
13252;SDS011;6693;54.370;10.132;2023-05-18T06:26:29;7.03;;;1.23;;